Spar City, Colorado
Current Conditions -  °F | °C
As of 6:16 AM on Sunday 23 Nov 2014 (Local Time) from KCPW Reporting Station
Overcast Overcast  
Wind Chill:   Ceiling: 6500
Heat Index: 12°   Visibility: 10mi
Dew Point: 12°   Wind: 7mph
Humidity: 100%   Direction: 260°W
Pressure: 29.74"   Gusts: NA
Location:  37.669°N, 106.924°W
Report Text: KCPW 231316Z AUTO 26006KT 10SM SCT050 BKN065 OVC075 M11/M11 A2974 RMK AO2
Loading
Personal Weather Stations






























Interactive Weather Map New forecast layout! Learn more

10-Day Weather Forecast

Advertisements
Track Severe Weather on mobile